Accueil
METAR-TAF:

METAR-TAF

Aéroports :

Audubon County Airport

Audubon, Iowa, États-Unis

latitude: 41-42-04N, longitude: 094-55-13W, altitude: 392 m

Observation

Le bulletin a été fait il y a 46 minutes, à 01:15 UTC
Vent calme
Température 23°C
Humidité 83%
Pression 1020 hPa
Visibilité: 16.1 km
Nuages épars à une hauteur de 2000 ft
Nuages fragmentés à une hauteur de 5500 ft
Ciel couvert à une hauteur de 8000 ft

METAR: KADU 220115Z AUTO 00000KT 10SM SCT020 BKN055 OVC080 23/20 A3011 RMK AO2

Heure: 21:01 (02:01 UTC)


TAF: absent

Observations et prévisions météorologiques de plus de 4000 aéroports (messages METAR et TAF).

Les stations disponibles sont représentées par des disques jaunes et rouges sur la carte.

Passer la souris dessus pour voir le nom de la station.

Cliquer dessus pour voir les observations et prévisions météorologiques.

Pour changer de carte: cliquez sur les boutons verts avec une croix noire pour zoomer, sur le bouton vert avec un tiret pour effectuer un zoom arrière, ou sur les flèches vertes pour les cartes adjacentes.


METAR-TAF: